createdAt,value
2019-05-06T00:02:11.324Z,66.07
2019-05-06T00:04:41.810Z,65.52
2019-05-06T00:07:13.805Z,65.23
2019-05-06T00:09:44.301Z,64.85
2019-05-06T00:12:14.784Z,64.81
2019-05-06T00:14:45.232Z,64.59
2019-05-06T00:17:15.843Z,64.29
2019-05-06T00:19:46.299Z,64.30
2019-05-06T00:22:16.840Z,65.19
2019-05-06T00:24:54.711Z,65.69
2019-05-06T00:27:31.283Z,65.54
2019-05-06T00:30:04.345Z,65.94
2019-05-06T00:32:34.818Z,65.81
2019-05-06T00:35:05.978Z,65.60
2019-05-06T00:37:36.468Z,65.56
2019-05-06T00:40:20.260Z,66.01
2019-05-06T00:43:00.419Z,67.67
2019-05-06T00:45:30.863Z,68.72
2019-05-06T00:48:01.346Z,69.23
2019-05-06T00:50:31.791Z,69.53
2019-05-06T00:53:04.908Z,69.71
2019-05-06T00:55:35.336Z,69.45
2019-05-06T00:58:05.927Z,69.20
2019-05-06T01:00:38.718Z,69.28
2019-05-06T01:03:09.222Z,68.74
2019-05-06T01:05:39.819Z,68.75
2019-05-06T01:08:10.373Z,68.96
2019-05-06T01:10:40.955Z,68.66
2019-05-06T01:13:26.692Z,68.72
2019-05-06T01:15:57.137Z,69.39
2019-05-06T01:18:27.824Z,69.07
2019-05-06T01:21:17.104Z,69.88
2019-05-06T01:23:48.194Z,69.38
2019-05-06T01:26:18.738Z,69.01
2019-05-06T01:28:49.191Z,69.07
2019-05-06T01:31:19.680Z,69.07
2019-05-06T01:33:50.160Z,69.06
2019-05-06T01:36:20.764Z,69.26
2019-05-06T01:39:04.412Z,69.62
2019-05-06T01:41:44.825Z,69.76
2019-05-06T01:44:15.262Z,69.69
2019-05-06T01:46:45.708Z,69.62
2019-05-06T01:49:16.214Z,69.38
2019-05-06T01:51:46.639Z,69.68
2019-05-06T01:54:17.132Z,69.91
2019-05-06T01:56:47.618Z,69.52
2019-05-06T01:59:18.382Z,69.39
2019-05-06T02:01:58.007Z,69.03
2019-05-06T02:04:21.090Z,69.27
2019-05-06T02:06:51.529Z,68.85
2019-05-06T02:09:22.001Z,69.64
2019-05-06T02:11:53.667Z,69.26
2019-05-06T02:14:24.755Z,68.94
2019-05-06T02:16:55.173Z,69.14
2019-05-06T02:19:25.732Z,69.05
2019-05-06T02:22:24.275Z,68.60
2019-05-06T02:25:01.020Z,68.74
2019-05-06T02:27:31.459Z,68.62
2019-05-06T02:30:15.320Z,68.57
2019-05-06T02:33:04.498Z,69.29
2019-05-06T02:35:55.419Z,69.20
2019-05-06T02:38:35.716Z,68.96
2019-05-06T02:41:03.223Z,68.91
2019-05-06T02:43:34.422Z,69.27
2019-05-06T02:46:04.577Z,69.18
2019-05-06T02:48:43.349Z,68.93
2019-05-06T02:51:17.063Z,69.83
2019-05-06T02:53:47.621Z,70.79
2019-05-06T02:56:18.078Z,70.53
2019-05-06T02:58:48.776Z,70.00
2019-05-06T03:01:19.267Z,70.29
2019-05-06T03:03:49.724Z,70.06
2019-05-06T03:06:20.204Z,70.32
2019-05-06T03:08:53.282Z,69.97
2019-05-06T03:11:23.977Z,69.64
2019-05-06T03:13:54.711Z,69.49
2019-05-06T03:16:25.151Z,69.73
2019-05-06T03:18:55.627Z,69.35
2019-05-06T03:21:38.299Z,70.09
2019-05-06T03:24:32.870Z,69.90
2019-05-06T03:27:04.449Z,69.75
2019-05-06T03:29:34.591Z,69.92
2019-05-06T03:32:07.298Z,70.30
2019-05-06T03:34:58.013Z,69.80
2019-05-06T03:37:09.516Z,69.55
2019-05-06T03:39:43.119Z,69.19
2019-05-06T03:42:15.944Z,69.66
2019-05-06T03:44:46.500Z,68.97
2019-05-06T03:47:43.312Z,68.64
2019-05-06T03:50:14.449Z,68.08
2019-05-06T03:52:45.157Z,67.99
2019-05-06T03:55:15.691Z,67.37
2019-05-06T03:57:47.582Z,66.95
2019-05-06T04:00:18.485Z,66.17
2019-05-06T04:02:49.082Z,65.46
2019-05-06T04:05:19.525Z,64.47
2019-05-06T04:07:53.036Z,63.94
2019-05-06T04:10:23.167Z,63.40
2019-05-06T04:12:54.774Z,62.80
2019-05-06T04:15:27.116Z,63.07
2019-05-06T04:18:04.273Z,63.37
2019-05-06T04:20:59.875Z,63.24
2019-05-06T04:23:55.523Z,62.88
2019-05-06T04:26:47.594Z,63.07
2019-05-06T04:29:18.380Z,63.09
2019-05-06T04:31:49.248Z,62.50
2019-05-06T04:34:23.082Z,62.48
2019-05-06T04:36:53.357Z,62.66
2019-05-06T04:39:24.487Z,62.63
2019-05-06T04:41:55.538Z,61.95
2019-05-06T04:44:26.209Z,62.08
2019-05-06T04:46:57.310Z,61.86
2019-05-06T04:49:27.898Z,62.20
2019-05-06T04:51:58.445Z,61.33
2019-05-06T04:54:28.915Z,61.72
2019-05-06T04:56:59.457Z,61.33
2019-05-06T04:59:32.569Z,61.00
2019-05-06T05:02:02.856Z,60.55
2019-05-06T05:04:36.703Z,60.40
2019-05-06T05:07:06.329Z,60.64
2019-05-06T05:09:36.874Z,60.46
2019-05-06T05:12:13.620Z,60.44
2019-05-06T05:15:00.079Z,59.91
2019-05-06T05:17:47.216Z,60.71
2019-05-06T05:20:17.664Z,60.71
2019-05-06T05:22:48.263Z,59.75
2019-05-06T05:25:18.748Z,59.87
2019-05-06T05:27:49.277Z,59.78
2019-05-06T05:30:21.896Z,59.82
2019-05-06T05:32:52.217Z,59.44
2019-05-06T05:35:22.919Z,58.91
2019-05-06T05:37:53.564Z,59.27
2019-05-06T05:40:24.048Z,58.83
2019-05-06T05:43:25.732Z,57.91
2019-05-06T05:45:56.381Z,56.53
2019-05-06T05:48:57.916Z,55.69
2019-05-06T05:51:28.352Z,54.47
2019-05-06T05:53:58.867Z,54.63
2019-05-06T05:56:30.216Z,54.49
2019-05-06T05:59:03.008Z,54.98
2019-05-06T06:01:33.193Z,55.41
2019-05-06T06:04:03.886Z,55.55
2019-05-06T06:06:34.443Z,55.02
2019-05-06T06:09:05.944Z,54.66
2019-05-06T06:11:49.810Z,54.71
2019-05-06T06:14:56.144Z,54.19
2019-05-06T06:17:51.929Z,53.88
2019-05-06T06:20:39.815Z,52.86
2019-05-06T06:23:16.730Z,52.24
2019-05-06T06:25:47.335Z,51.29
2019-05-06T06:28:17.944Z,50.86
2019-05-06T06:31:13.471Z,50.93
2019-05-06T06:33:43.971Z,50.23
2019-05-06T06:36:39.013Z,49.44
2019-05-06T06:39:13.923Z,49.44
2019-05-06T06:41:44.518Z,49.23
2019-05-06T06:44:17.965Z,47.93
2019-05-06T06:46:48.557Z,47.71
2019-05-06T06:49:19.190Z,48.16
2019-05-06T06:51:49.792Z,48.46
2019-05-06T06:54:20.303Z,48.98
2019-05-06T06:57:15.599Z,48.22
2019-05-06T06:59:57.797Z,48.44
2019-05-06T07:02:47.384Z,48.05
2019-05-06T07:05:45.873Z,48.32
2019-05-06T07:08:16.308Z,48.77
2019-05-06T07:10:46.787Z,47.87
2019-05-06T07:13:17.777Z,48.12
2019-05-06T07:15:48.316Z,48.02
2019-05-06T07:18:18.755Z,48.13
2019-05-06T07:21:23.346Z,47.58
2019-05-06T07:23:53.779Z,48.31
2019-05-06T07:26:27.291Z,48.12
2019-05-06T07:28:57.751Z,48.07
2019-05-06T07:31:28.236Z,48.47
2019-05-06T07:33:58.881Z,48.93
2019-05-06T07:36:29.365Z,49.98
2019-05-06T07:39:03.899Z,49.78
2019-05-06T07:41:53.989Z,49.51
2019-05-06T07:44:45.885Z,49.52
2019-05-06T07:47:38.445Z,49.42
2019-05-06T07:50:10.144Z,49.64
2019-05-06T07:52:42.265Z,49.39
2019-05-06T07:55:13.156Z,49.38
2019-05-06T07:57:43.600Z,49.23
2019-05-06T08:00:14.306Z,49.23
2019-05-06T08:02:44.754Z,48.86
2019-05-06T08:05:15.344Z,49.12
2019-05-06T08:07:45.775Z,48.67
2019-05-06T08:10:16.487Z,48.57
2019-05-06T08:12:46.921Z,48.43
2019-05-06T08:15:18.109Z,48.46
2019-05-06T08:17:48.515Z,48.37
2019-05-06T08:20:22.007Z,48.14
2019-05-06T08:23:08.407Z,48.42
2019-05-06T08:25:44.854Z,48.04
2019-05-06T08:28:15.297Z,48.18
2019-05-06T08:30:45.789Z,47.99
2019-05-06T08:33:16.339Z,47.84
2019-05-06T08:35:46.820Z,46.50
2019-05-06T08:38:17.327Z,46.18
2019-05-06T08:40:47.861Z,44.74
2019-05-06T08:43:18.338Z,45.17
2019-05-06T08:45:48.901Z,44.28
2019-05-06T08:48:19.455Z,44.41
2019-05-06T08:51:03.377Z,44.11
2019-05-06T08:54:07.698Z,44.11
2019-05-06T08:56:38.142Z,44.40
2019-05-06T08:59:08.609Z,43.91
2019-05-06T09:01:49.719Z,44.54
2019-05-06T09:04:22.591Z,45.45
2019-05-06T09:06:53.401Z,45.68
2019-05-06T09:09:24.260Z,45.04
2019-05-06T09:11:54.701Z,44.98
2019-05-06T09:14:25.142Z,45.25
2019-05-06T09:16:55.637Z,47.52
2019-05-06T09:19:26.077Z,47.56
2019-05-06T09:21:57.863Z,49.13
2019-05-06T09:24:28.281Z,49.27
2019-05-06T09:27:04.416Z,49.55
2019-05-06T09:29:47.011Z,51.11
2019-05-06T09:32:22.738Z,49.21
2019-05-06T09:34:58.024Z,48.34
2019-05-06T09:37:28.461Z,49.78
2019-05-06T09:39:58.951Z,50.43
2019-05-06T09:42:29.448Z,49.12
2019-05-06T09:45:02.040Z,47.46
2019-05-06T09:47:49.874Z,47.63
2019-05-06T09:50:34.486Z,46.89
2019-05-06T09:53:05.564Z,46.61
2019-05-06T09:55:43.019Z,46.53
2019-05-06T09:58:13.610Z,43.97
2019-05-06T10:00:46.228Z,43.80
2019-05-06T10:03:16.711Z,44.18
2019-05-06T10:05:47.189Z,43.89
2019-05-06T10:08:17.773Z,44.33
2019-05-06T10:10:56.786Z,44.03
2019-05-06T10:13:20.522Z,44.89
2019-05-06T10:15:52.064Z,45.95
2019-05-06T10:18:22.767Z,45.57
2019-05-06T10:20:53.252Z,43.83
2019-05-06T10:23:23.791Z,42.29
2019-05-06T10:25:54.306Z,42.25
2019-05-06T10:28:36.380Z,42.57
2019-05-06T10:31:09.198Z,42.71
2019-05-06T10:33:58.451Z,42.67
2019-05-06T10:36:34.634Z,42.67
2019-05-06T10:39:12.544Z,42.23
2019-05-06T10:41:45.356Z,42.21
2019-05-06T10:44:42.790Z,41.25
2019-05-06T10:47:13.329Z,41.78
2019-05-06T10:49:43.765Z,42.19
2019-05-06T10:52:19.270Z,42.76
2019-05-06T10:54:49.720Z,41.95
2019-05-06T10:57:43.171Z,41.57
2019-05-06T11:00:13.905Z,41.34
2019-05-06T11:03:22.692Z,42.17
2019-05-06T11:05:53.815Z,42.40
2019-05-06T11:08:24.329Z,42.13
2019-05-06T11:10:54.770Z,40.86
2019-05-06T11:13:25.261Z,41.46
2019-05-06T11:15:55.839Z,40.93
2019-05-06T11:18:26.296Z,40.21
2019-05-06T11:20:56.901Z,39.72
2019-05-06T11:23:27.389Z,39.89
2019-05-06T11:25:57.866Z,39.90
2019-05-06T11:28:44.365Z,40.09
2019-05-06T11:31:26.172Z,40.06
2019-05-06T11:34:05.788Z,38.95
2019-05-06T11:36:42.675Z,39.61
2019-05-06T11:39:14.211Z,38.20
2019-05-06T11:42:01.666Z,38.76
2019-05-06T11:44:16.972Z,39.92
2019-05-06T11:46:47.415Z,40.74
2019-05-06T11:49:17.876Z,41.30
2019-05-06T11:51:48.369Z,39.78
2019-05-06T11:54:20.714Z,39.00
2019-05-06T11:56:55.189Z,37.79
2019-05-06T11:59:23.915Z,37.88
2019-05-06T12:01:58.534Z,37.58
2019-05-06T12:04:28.989Z,36.04
2019-05-06T12:07:10.243Z,35.91
2019-05-06T12:09:33.077Z,35.74
2019-05-06T12:12:04.382Z,36.27
2019-05-06T12:14:34.988Z,37.10
2019-05-06T12:17:05.424Z,38.86
2019-05-06T12:19:35.964Z,38.55
2019-05-06T12:22:06.567Z,37.50
2019-05-06T12:24:37.114Z,38.00
2019-05-06T12:27:07.550Z,34.68
2019-05-06T12:29:38.453Z,35.55
2019-05-06T12:32:22.549Z,36.45
2019-05-06T12:34:53.095Z,35.15
2019-05-06T12:37:25.180Z,35.38
2019-05-06T12:39:57.901Z,35.19
2019-05-06T12:42:33.170Z,35.54
2019-05-06T12:45:23.034Z,35.88
2019-05-06T12:48:03.042Z,36.47
2019-05-06T12:50:33.473Z,35.88
2019-05-06T12:53:03.935Z,35.41
2019-05-06T12:55:35.449Z,33.38
2019-05-06T12:58:06.158Z,34.04
2019-05-06T13:00:36.867Z,34.06
2019-05-06T13:03:07.347Z,33.26
2019-05-06T13:05:37.864Z,30.88
2019-05-06T13:08:08.317Z,30.66
2019-05-06T13:10:38.797Z,28.41
2019-05-06T13:13:09.344Z,28.98
2019-05-06T13:15:40.056Z,28.99
2019-05-06T13:18:10.606Z,30.02
2019-05-06T13:20:48.395Z,30.34
2019-05-06T13:23:25.319Z,30.96
2019-05-06T13:25:53.142Z,30.82
2019-05-06T13:28:25.306Z,31.06
2019-05-06T13:30:55.786Z,31.66
2019-05-06T13:33:39.813Z,31.52
2019-05-06T13:36:12.583Z,31.71
2019-05-06T13:38:42.782Z,32.23
2019-05-06T13:41:13.314Z,33.36
2019-05-06T13:43:48.234Z,34.06
2019-05-06T13:46:24.111Z,38.54
2019-05-06T13:49:13.390Z,39.13
2019-05-06T13:52:08.791Z,39.26
2019-05-06T13:54:39.317Z,40.54
2019-05-06T13:57:12.263Z,40.96
2019-05-06T13:59:44.148Z,40.36
2019-05-06T14:02:36.367Z,40.94
2019-05-06T14:05:07.708Z,41.71
2019-05-06T14:07:38.145Z,42.72
2019-05-06T14:10:08.952Z,42.73
2019-05-06T14:12:39.404Z,43.24
2019-05-06T14:15:12.385Z,43.41
2019-05-06T14:17:42.625Z,42.32
2019-05-06T14:20:13.509Z,41.85
2019-05-06T14:22:44.078Z,41.46
2019-05-06T14:25:38.157Z,41.43
2019-05-06T14:28:19.706Z,41.32
2019-05-06T14:30:59.929Z,41.59
2019-05-06T14:33:32.296Z,41.73
2019-05-06T14:36:03.246Z,41.49
2019-05-06T14:38:33.849Z,42.17
2019-05-06T14:41:07.920Z,42.80
2019-05-06T14:43:38.547Z,43.19
2019-05-06T14:46:09.076Z,43.57
2019-05-06T14:48:39.534Z,44.01
2019-05-06T14:51:10.113Z,44.07
2019-05-06T14:53:43.376Z,42.82
2019-05-06T14:56:38.165Z,43.33
2019-05-06T14:59:08.884Z,42.73
2019-05-06T15:01:45.137Z,42.48
2019-05-06T15:04:12.926Z,42.14
2019-05-06T15:06:43.352Z,42.17
2019-05-06T15:09:13.896Z,41.58
2019-05-06T15:11:44.462Z,41.48
2019-05-06T15:14:14.891Z,41.29
2019-05-06T15:16:45.371Z,41.21
2019-05-06T15:19:15.805Z,40.99
2019-05-06T15:21:46.254Z,41.78
2019-05-06T15:24:16.760Z,41.35
2019-05-06T15:26:47.240Z,40.96
2019-05-06T15:29:17.701Z,41.18
2019-05-06T15:31:58.876Z,41.75
2019-05-06T15:34:37.002Z,42.11
2019-05-06T15:37:14.339Z,41.99
2019-05-06T15:39:44.789Z,41.57
2019-05-06T15:42:15.279Z,41.48
2019-05-06T15:44:45.723Z,41.88
2019-05-06T15:47:16.236Z,42.24
2019-05-06T15:49:46.645Z,42.65
2019-05-06T15:52:17.128Z,42.99
2019-05-06T15:54:47.563Z,43.09
2019-05-06T15:57:18.040Z,43.14
2019-05-06T15:59:48.480Z,43.46
2019-05-06T16:02:19.007Z,43.27
2019-05-06T16:04:49.435Z,43.18
2019-05-06T16:07:19.963Z,42.55
2019-05-06T16:09:55.023Z,42.44
2019-05-06T16:12:22.617Z,42.97
2019-05-06T16:14:53.278Z,43.04
2019-05-06T16:17:24.040Z,43.30
2019-05-06T16:19:54.548Z,43.28
2019-05-06T16:22:24.964Z,43.71
2019-05-06T16:25:02.683Z,43.86
2019-05-06T16:27:32.625Z,43.45
2019-05-06T16:30:03.621Z,43.47
2019-05-06T16:32:34.134Z,43.35
2019-05-06T16:35:04.798Z,43.90
2019-05-06T16:37:35.284Z,43.79
2019-05-06T16:40:06.736Z,43.51
2019-05-06T16:42:37.297Z,43.89
2019-05-06T16:45:08.237Z,43.99
2019-05-06T16:47:39.404Z,44.24
2019-05-06T16:50:13.554Z,44.75
2019-05-06T16:52:45.638Z,45.49
2019-05-06T16:55:20.186Z,45.92
2019-05-06T16:58:04.729Z,46.34
2019-05-06T17:00:36.578Z,46.58
2019-05-06T17:03:32.958Z,47.24
2019-05-06T17:06:14.007Z,47.76
2019-05-06T17:08:44.551Z,47.97
2019-05-06T17:11:26.963Z,48.36
2019-05-06T17:13:47.419Z,49.26
2019-05-06T17:16:18.083Z,49.65
2019-05-06T17:18:48.671Z,50.13
2019-05-06T17:21:19.251Z,51.35
2019-05-06T17:23:52.028Z,51.72
2019-05-06T17:26:22.546Z,52.02
2019-05-06T17:29:22.693Z,52.44
2019-05-06T17:32:11.992Z,53.21
2019-05-06T17:34:46.249Z,53.43
2019-05-06T17:37:36.853Z,53.54
2019-05-06T17:40:11.749Z,53.51
2019-05-06T17:42:42.093Z,54.10
2019-05-06T17:45:32.081Z,53.35
2019-05-06T17:48:14.039Z,53.64
2019-05-06T17:50:49.031Z,54.45
2019-05-06T17:53:19.552Z,54.47
2019-05-06T17:55:49.989Z,54.15
2019-05-06T17:58:22.046Z,54.33
2019-05-06T18:00:52.480Z,54.04
2019-05-06T18:03:24.670Z,54.11
2019-05-06T18:05:55.185Z,54.02
2019-05-06T18:08:25.626Z,54.03
2019-05-06T18:10:56.139Z,53.72
2019-05-06T18:13:26.608Z,53.94
2019-05-06T18:15:57.139Z,53.79
2019-05-06T18:18:28.990Z,53.82
2019-05-06T18:20:59.558Z,53.68
2019-05-06T18:23:30.012Z,54.34
2019-05-06T18:26:00.523Z,54.65
2019-05-06T18:28:32.677Z,55.03
2019-05-06T18:31:03.287Z,55.91
2019-05-06T18:33:33.827Z,56.11
2019-05-06T18:36:06.326Z,56.31
2019-05-06T18:38:36.497Z,56.57
2019-05-06T18:41:07.097Z,57.57
2019-05-06T18:43:37.588Z,57.67
2019-05-06T18:46:08.164Z,57.56
2019-05-06T18:48:38.693Z,58.14
2019-05-06T18:51:09.130Z,57.81
2019-05-06T18:53:39.607Z,58.12
2019-05-06T18:56:12.519Z,58.02
2019-05-06T18:58:42.877Z,58.78
2019-05-06T19:01:13.534Z,59.66
2019-05-06T19:04:03.442Z,59.22
2019-05-06T19:06:34.057Z,59.21
2019-05-06T19:09:33.253Z,59.16
2019-05-06T19:12:04.023Z,59.80
2019-05-06T19:14:34.475Z,60.23
2019-05-06T19:17:05.100Z,61.52
2019-05-06T19:19:35.635Z,62.57
2019-05-06T19:22:06.319Z,63.58
2019-05-06T19:24:36.751Z,64.24
2019-05-06T19:27:07.250Z,65.14
2019-05-06T19:29:37.743Z,66.41
2019-05-06T19:32:08.284Z,67.03
2019-05-06T19:34:38.760Z,65.53
2019-05-06T19:37:09.196Z,65.62
2019-05-06T19:39:39.688Z,66.91
2019-05-06T19:42:12.503Z,66.86
2019-05-06T19:44:43.142Z,68.24
2019-05-06T19:47:14.458Z,68.82
2019-05-06T19:49:44.916Z,68.97
2019-05-06T19:52:15.336Z,68.84
2019-05-06T19:54:45.811Z,68.47
2019-05-06T19:57:16.292Z,68.16
2019-05-06T19:59:46.760Z,68.90
2019-05-06T20:02:17.214Z,69.57
2019-05-06T20:04:53.217Z,70.20
2019-05-06T20:07:38.356Z,71.30
2019-05-06T20:10:27.849Z,72.14
2019-05-06T20:13:02.738Z,73.25
2019-05-06T20:15:39.581Z,73.84
2019-05-06T20:18:10.676Z,73.76
2019-05-06T20:20:42.268Z,74.06
2019-05-06T20:23:13.083Z,74.33
2019-05-06T20:25:44.938Z,73.95
2019-05-06T20:28:15.603Z,73.54
2019-05-06T20:30:46.134Z,72.98
2019-05-06T20:33:16.626Z,72.50
2019-05-06T20:35:47.063Z,72.44
2019-05-06T20:38:17.547Z,72.10
2019-05-06T20:40:47.971Z,71.28
2019-05-06T20:43:23.072Z,71.08
2019-05-06T20:45:52.134Z,71.36
2019-05-06T20:48:23.501Z,73.18
2019-05-06T20:50:54.088Z,72.90
2019-05-06T20:53:24.573Z,72.80
2019-05-06T20:55:55.058Z,72.31
2019-05-06T20:58:25.498Z,72.19
2019-05-06T21:00:55.988Z,73.20
2019-05-06T21:03:26.428Z,73.37
2019-05-06T21:05:56.862Z,72.80
2019-05-06T21:08:27.446Z,72.46
2019-05-06T21:10:57.883Z,72.70
2019-05-06T21:13:32.152Z,72.01
2019-05-06T21:16:02.229Z,71.50
2019-05-06T21:18:32.767Z,70.96
2019-05-06T21:21:03.211Z,70.82
2019-05-06T21:23:33.809Z,70.84
2019-05-06T21:26:04.347Z,70.64
2019-05-06T21:28:34.840Z,70.49
2019-05-06T21:31:05.310Z,70.36
2019-05-06T21:33:35.811Z,69.62
2019-05-06T21:36:06.243Z,69.42
2019-05-06T21:38:36.728Z,68.77
2019-05-06T21:41:07.182Z,68.66
2019-05-06T21:43:46.930Z,67.82
2019-05-06T21:46:09.813Z,67.91
2019-05-06T21:48:42.072Z,68.59
2019-05-06T21:51:12.876Z,68.20
2019-05-06T21:53:43.403Z,68.23
2019-05-06T21:56:13.936Z,67.26
2019-05-06T21:58:44.381Z,67.65
2019-05-06T22:01:15.046Z,67.42
2019-05-06T22:03:45.575Z,66.99
2019-05-06T22:06:16.151Z,66.48
2019-05-06T22:08:46.589Z,66.82
2019-05-06T22:11:17.062Z,66.78
2019-05-06T22:14:00.492Z,66.52
2019-05-06T22:16:19.684Z,67.35
2019-05-06T22:18:50.131Z,66.63
2019-05-06T22:21:25.143Z,66.65
2019-05-06T22:24:04.682Z,65.99
2019-05-06T22:26:35.551Z,66.18
2019-05-06T22:29:06.184Z,65.85
2019-05-06T22:31:36.684Z,65.78
2019-05-06T22:34:07.118Z,64.86
2019-05-06T22:36:37.597Z,64.97
2019-05-06T22:39:08.278Z,65.11
2019-05-06T22:41:38.746Z,65.33
2019-05-06T22:44:13.578Z,64.91
2019-05-06T22:46:42.476Z,64.79
2019-05-06T22:49:13.382Z,64.99
2019-05-06T22:51:44.057Z,64.74
2019-05-06T22:54:14.532Z,64.31
2019-05-06T22:56:44.961Z,64.74
2019-05-06T22:59:15.411Z,64.59
2019-05-06T23:02:04.729Z,65.12
2019-05-06T23:04:36.066Z,65.51
2019-05-06T23:07:06.503Z,67.29
2019-05-06T23:09:36.984Z,67.26
2019-05-06T23:12:07.395Z,66.18
2019-05-06T23:14:37.839Z,65.05
2019-05-06T23:17:08.295Z,65.75
2019-05-06T23:19:38.763Z,65.79
2019-05-06T23:22:09.251Z,65.54
2019-05-06T23:24:39.769Z,66.16
2019-05-06T23:27:12.512Z,66.93
2019-05-06T23:29:44.823Z,66.72
2019-05-06T23:32:14.626Z,66.86
2019-05-06T23:34:45.135Z,67.42
2019-05-06T23:37:23.432Z,67.31
2019-05-06T23:40:42.533Z,66.30
2019-05-06T23:43:47.436Z,66.21
2019-05-06T23:46:53.223Z,65.70
2019-05-06T23:49:59.148Z,64.78
2019-05-06T23:53:04.638Z,64.64
2019-05-06T23:56:10.096Z,64.60
2019-05-06T23:58:42.754Z,64.18
